Time;durP1;ratioP1;P1;durP2;ratioP2;P2;SDS_P1;SDS_P2;PMS_P1;PMS_P2;Temp;Humidity;BMP_temperature;BMP_pressure;BME280_temperature;BME280_humidity;BME280_pressure;Samples;Min_cycle;Max_cycle;Signal;HPM_P1;HPM_P2
2023/04/12 00:00:35;;;;;;;6.07;2.30;;;;;;;;;;5011219;28;20407;-45
2023/04/12 00:03:04;;;;;;;2.43;1.80;;;;;;;;;;5010848;28;20426;-44
2023/04/12 00:05:31;;;;;;;5.63;2.83;;;;;;;;;;5011042;28;21230;-44
2023/04/12 00:07:59;;;;;;;7.80;1.73;;;;;;;;;;5010830;28;20431;-44
2023/04/12 00:10:25;;;;;;;6.90;4.00;;;;;;;;;;5005057;28;20423;-45
2023/04/12 00:12:51;;;;;;;2.03;1.83;;;;;;;;;;5010670;28;20485;-45
2023/04/12 00:15:17;;;;;;;9.63;2.70;;;;;;;;;;5001824;28;20868;-45
2023/04/12 00:17:44;;;;;;;7.93;2.63;;;;;;;;;;5010400;28;20485;-44
2023/04/12 00:20:11;;;;;;;4.13;2.63;;;;;;;;;;5012211;28;20934;-45
2023/04/12 00:22:37;;;;;;;4.23;2.43;;;;;;;;;;5014756;28;20465;-44
2023/04/12 00:25:03;;;;;;;4.27;2.30;;;;;;;;;;5014697;28;20422;-45
2023/04/12 00:27:29;;;;;;;7.00;2.60;;;;;;;;;;5013993;28;20926;-44
2023/04/12 00:29:55;;;;;;;3.57;1.97;;;;;;;;;;5007696;28;20414;-44
2023/04/12 00:32:21;;;;;;;2.60;1.77;;;;;;;;;;5014221;28;20474;-45
2023/04/12 00:34:47;;;;;;;3.57;2.00;;;;;;;;;;5014495;28;20494;-45
2023/04/12 00:37:13;;;;;;;5.30;2.23;;;;;;;;;;5013975;28;20451;-45
2023/04/12 00:39:39;;;;;;;5.20;2.30;;;;;;;;;;5014322;28;20407;-44
2023/04/12 00:42:05;;;;;;;4.33;2.10;;;;;;;;;;5014184;28;20411;-44
2023/04/12 00:44:34;;;;;;;2.40;1.83;;;;;;;;;;5013945;28;20438;-45
2023/04/12 00:47:01;;;;;;;6.10;2.13;;;;;;;;;;5013294;28;20415;-44
2023/04/12 00:49:29;;;;;;;2.47;2.10;;;;;;;;;;5014787;28;20415;-44
2023/04/12 00:52:04;;;;;;;6.07;2.20;;;;;;;;;;5014227;28;20470;-45
2023/04/12 00:54:31;;;;;;;5.30;2.20;;;;;;;;;;5013908;28;20973;-45
2023/04/12 00:56:57;;;;;;;4.73;2.73;;;;;;;;;;5005704;28;20490;-45
2023/04/12 00:59:23;;;;;;;5.30;2.80;;;;;;;;;;5012609;28;20416;-45
2023/04/12 01:01:49;;;;;;;2.50;1.80;;;;;;;;;;5013463;28;20506;-45
2023/04/12 01:04:15;;;;;;;3.93;1.67;;;;;;;;;;5012383;28;20494;-45
2023/04/12 01:06:45;;;;;;;2.87;2.03;;;;;;;;;;5011255;28;20424;-45
2023/04/12 01:09:20;;;;;;;4.53;2.10;;;;;;;;;;5013266;28;20418;-45
2023/04/12 01:12:05;;;;;;;3.00;1.80;;;;;;;;;;5013657;28;20477;-45
2023/04/12 01:14:47;;;;;;;5.83;2.17;;;;;;;;;;5013651;28;20538;-45
2023/04/12 01:17:19;;;;;;;2.10;1.90;;;;;;;;;;5015404;28;20423;-45
2023/04/12 01:19:52;;;;;;;5.27;1.67;;;;;;;;;;5016829;28;20434;-45
2023/04/12 01:22:18;;;;;;;4.70;2.10;;;;;;;;;;5013600;28;20415;-45
2023/04/12 01:25:10;;;;;;;4.47;1.83;;;;;;;;;;5013576;28;20834;-45
2023/04/12 01:27:42;;;;;;;5.00;2.00;;;;;;;;;;5012969;28;20432;-45
2023/04/12 01:30:11;;;;;;;3.70;1.80;;;;;;;;;;5011761;28;20885;-45
2023/04/12 01:32:38;;;;;;;4.87;2.00;;;;;;;;;;5012241;28;20462;-45
2023/04/12 01:35:07;;;;;;;2.93;1.93;;;;;;;;;;5012177;28;20798;-45
2023/04/12 01:37:33;;;;;;;2.37;2.00;;;;;;;;;;5009676;28;20443;-45
2023/04/12 01:40:00;;;;;;;1.80;1.70;;;;;;;;;;5011896;28;20427;-45
2023/04/12 01:42:25;;;;;;;3.63;1.80;;;;;;;;;;5013008;28;20415;-45
2023/04/12 01:44:52;;;;;;;6.10;2.30;;;;;;;;;;5011699;28;20429;-45
2023/04/12 01:47:18;;;;;;;7.70;1.93;;;;;;;;;;5012995;28;20447;-46
2023/04/12 01:49:56;;;;;;;3.53;2.10;;;;;;;;;;5012988;28;20423;-45
2023/04/12 01:52:22;;;;;;;5.23;2.20;;;;;;;;;;5013004;28;20520;-45
2023/04/12 01:54:49;;;;;;;9.40;4.20;;;;;;;;;;5012779;28;20411;-45
2023/04/12 01:57:17;;;;;;;4.53;2.13;;;;;;;;;;5012515;28;20423;-45
2023/04/12 01:59:43;;;;;;;4.80;2.30;;;;;;;;;;5011482;28;20411;-45
2023/04/12 02:02:10;;;;;;;12.17;2.43;;;;;;;;;;5012871;28;20510;-45
2023/04/12 02:04:37;;;;;;;3.70;2.20;;;;;;;;;;5011393;28;20923;-45
2023/04/12 02:07:04;;;;;;;2.43;2.20;;;;;;;;;;5012293;28;20820;-45
2023/04/12 02:09:30;;;;;;;7.60;2.30;;;;;;;;;;5012654;28;20445;-45
2023/04/12 02:11:56;;;;;;;2.13;2.00;;;;;;;;;;5008997;28;20610;-45
2023/04/12 02:14:22;;;;;;;4.87;2.10;;;;;;;;;;5012601;28;20409;-45
2023/04/12 02:16:49;;;;;;;7.60;2.97;;;;;;;;;;5016303;28;20912;-45
2023/04/12 02:19:15;;;;;;;8.27;1.97;;;;;;;;;;5016717;28;20435;-45
2023/04/12 02:21:42;;;;;;;5.13;2.27;;;;;;;;;;5012395;28;20411;-45
2023/04/12 02:24:08;;;;;;;5.87;2.07;;;;;;;;;;5012334;28;20395;-45
2023/04/12 02:26:35;;;;;;;3.47;2.23;;;;;;;;;;5012442;28;20441;-45
2023/04/12 02:29:02;;;;;;;7.70;3.00;;;;;;;;;;5012065;28;21026;-45
2023/04/12 02:31:29;;;;;;;4.13;2.10;;;;;;;;;;5012352;28;20480;-45
2023/04/12 02:33:55;;;;;;;5.73;2.77;;;;;;;;;;5011135;28;20498;-45
2023/04/12 02:36:21;;;;;;;4.43;1.97;;;;;;;;;;5012673;28;20410;-45
2023/04/12 02:38:50;;;;;;;4.70;2.40;;;;;;;;;;5011442;28;20480;-45
2023/04/12 02:41:17;;;;;;;5.17;2.40;;;;;;;;;;5012137;28;20428;-45
2023/04/12 02:43:43;;;;;;;2.87;2.67;;;;;;;;;;5011750;28;20458;-45
2023/04/12 02:46:09;;;;;;;5.07;2.27;;;;;;;;;;5016326;28;20436;-45
2023/04/12 02:48:35;;;;;;;5.63;2.50;;;;;;;;;;5015569;28;20504;-45
2023/04/12 02:51:01;;;;;;;8.03;2.10;;;;;;;;;;5012125;28;20852;-45
2023/04/12 02:53:27;;;;;;;6.10;2.33;;;;;;;;;;5012401;28;20563;-45
2023/04/12 02:55:53;;;;;;;4.13;2.37;;;;;;;;;;5011989;28;20431;-45
2023/04/12 02:58:19;;;;;;;4.50;2.30;;;;;;;;;;5007185;28;20437;-45
2023/04/12 03:00:45;;;;;;;5.53;2.60;;;;;;;;;;5010654;28;20414;-45
2023/04/12 03:03:11;;;;;;;3.00;2.17;;;;;;;;;;5012032;28;20411;-45
2023/04/12 03:05:38;;;;;;;4.50;2.00;;;;;;;;;;5009633;28;20402;-45
2023/04/12 03:08:04;;;;;;;4.43;2.00;;;;;;;;;;5006968;28;20437;-45
2023/04/12 03:10:30;;;;;;;6.63;2.00;;;;;;;;;;5006030;28;20739;-45
2023/04/12 03:12:56;;;;;;;6.40;1.83;;;;;;;;;;4996365;28;20455;-45
2023/04/12 03:15:22;;;;;;;2.90;1.70;;;;;;;;;;5010119;28;20781;-45
2023/04/12 03:17:48;;;;;;;3.70;1.80;;;;;;;;;;5011348;28;20488;-45
2023/04/12 03:20:16;;;;;;;2.47;2.13;;;;;;;;;;5010709;28;20424;-45
2023/04/12 03:22:41;;;;;;;2.63;2.20;;;;;;;;;;5009710;28;20410;-45
2023/04/12 03:25:08;;;;;;;7.70;2.27;;;;;;;;;;5005890;28;20469;-45
2023/04/12 03:27:34;;;;;;;3.37;1.93;;;;;;;;;;5003674;28;20440;-45
2023/04/12 03:30:01;;;;;;;3.93;2.00;;;;;;;;;;5011054;28;20409;-45
2023/04/12 03:32:26;;;;;;;2.00;1.80;;;;;;;;;;5011642;28;20463;-45
2023/04/12 03:34:52;;;;;;;6.93;2.50;;;;;;;;;;5007261;28;20759;-45
2023/04/12 03:37:18;;;;;;;4.80;2.27;;;;;;;;;;5011082;28;20528;-45
2023/04/12 03:39:46;;;;;;;3.23;1.80;;;;;;;;;;5011370;28;20409;-45
2023/04/12 03:42:12;;;;;;;2.10;1.90;;;;;;;;;;5011610;28;20881;-45
2023/04/12 03:44:38;;;;;;;3.87;1.50;;;;;;;;;;5010666;28;20429;-45
2023/04/12 03:47:04;;;;;;;3.47;1.80;;;;;;;;;;5010924;28;20454;-45
2023/04/12 03:49:31;;;;;;;4.27;2.60;;;;;;;;;;5007203;28;20410;-45
2023/04/12 03:51:57;;;;;;;3.00;1.57;;;;;;;;;;5003458;28;20898;-45
2023/04/12 03:54:23;;;;;;;4.00;2.10;;;;;;;;;;5011507;28;20892;-44
2023/04/12 03:56:49;;;;;;;2.40;2.20;;;;;;;;;;5011572;28;20464;-45
2023/04/12 03:59:15;;;;;;;1.90;1.80;;;;;;;;;;5009194;28;20405;-45
2023/04/12 04:01:42;;;;;;;1.90;1.70;;;;;;;;;;5013104;28;20398;-45
2023/04/12 04:04:08;;;;;;;4.33;1.60;;;;;;;;;;5014957;28;20420;-45
2023/04/12 04:06:34;;;;;;;3.87;1.90;;;;;;;;;;5014903;28;20413;-45
2023/04/12 04:09:00;;;;;;;3.93;1.83;;;;;;;;;;5007378;28;20989;-45
2023/04/12 04:11:26;;;;;;;2.47;2.17;;;;;;;;;;5014141;28;20418;-45
2023/04/12 04:13:52;;;;;;;2.23;2.00;;;;;;;;;;5014723;28;20465;-45
2023/04/12 04:16:18;;;;;;;2.60;2.07;;;;;;;;;;5014249;28;20895;-45
2023/04/12 04:18:44;;;;;;;3.63;2.50;;;;;;;;;;5022878;28;20514;-45
2023/04/12 04:21:10;;;;;;;3.80;2.60;;;;;;;;;;5009276;28;20409;-45
2023/04/12 04:23:43;;;;;;;5.13;2.03;;;;;;;;;;5014907;28;20494;-45
2023/04/12 04:26:09;;;;;;;2.07;1.83;;;;;;;;;;5014692;28;20419;-44
2023/04/12 04:28:37;;;;;;;3.43;2.30;;;;;;;;;;5014135;28;20777;-45
2023/04/12 04:31:05;;;;;;;4.13;3.00;;;;;;;;;;5014597;28;20805;-45
2023/04/12 04:33:31;;;;;;;3.07;2.40;;;;;;;;;;5014406;28;20884;-45
2023/04/12 04:35:57;;;;;;;7.77;2.00;;;;;;;;;;5007238;28;20897;-45
2023/04/12 04:38:25;;;;;;;7.73;2.37;;;;;;;;;;5009558;28;20455;-45
2023/04/12 04:40:54;;;;;;;1.60;1.50;;;;;;;;;;5014982;28;20417;-44
2023/04/12 04:43:20;;;;;;;2.37;2.17;;;;;;;;;;5014358;28;20403;-44
2023/04/12 04:45:49;;;;;;;2.50;2.30;;;;;;;;;;5014881;28;20434;-44
2023/04/12 04:48:17;;;;;;;3.20;2.20;;;;;;;;;;5013961;28;20441;-44
2023/04/12 04:50:43;;;;;;;2.10;1.90;;;;;;;;;;5021012;28;20438;-44
2023/04/12 04:53:10;;;;;;;2.40;1.93;;;;;;;;;;5014125;28;20469;-44
2023/04/12 04:55:36;;;;;;;3.60;2.03;;;;;;;;;;5011858;28;20495;-44
2023/04/12 04:58:02;;;;;;;2.70;2.13;;;;;;;;;;5013746;28;20801;-44
2023/04/12 05:00:29;;;;;;;2.30;1.73;;;;;;;;;;5010159;28;20406;-44
2023/04/12 05:02:55;;;;;;;2.90;2.20;;;;;;;;;;5013994;28;20410;-44
2023/04/12 05:05:22;;;;;;;1.80;1.70;;;;;;;;;;5013537;28;20905;-45
2023/04/12 05:07:48;;;;;;;3.87;1.80;;;;;;;;;;5012881;28;20995;-44
2023/04/12 05:10:14;;;;;;;3.47;1.83;;;;;;;;;;5013758;28;20955;-44
2023/04/12 05:12:40;;;;;;;2.07;1.87;;;;;;;;;;5013375;28;20480;-45
2023/04/12 05:15:06;;;;;;;2.40;2.03;;;;;;;;;;5013073;28;20411;-44
2023/04/12 05:17:35;;;;;;;2.40;1.77;;;;;;;;;;5015331;28;20905;-44
2023/04/12 05:20:04;;;;;;;4.60;2.17;;;;;;;;;;5010344;28;20433;-44
2023/04/12 05:22:31;;;;;;;4.60;2.00;;;;;;;;;;5013231;28;20413;-45
2023/04/12 05:24:57;;;;;;;3.40;2.10;;;;;;;;;;5007126;28;20426;-43
2023/04/12 05:27:23;;;;;;;2.23;2.07;;;;;;;;;;5012687;28;20459;-44
2023/04/12 05:29:50;;;;;;;1.83;1.43;;;;;;;;;;5012943;28;20421;-44
2023/04/12 05:32:16;;;;;;;1.93;1.73;;;;;;;;;;5013001;28;20464;-44
2023/04/12 05:34:42;;;;;;;1.70;1.60;;;;;;;;;;5012874;28;20485;-44
2023/04/12 05:37:08;;;;;;;2.27;2.07;;;;;;;;;;5012588;28;20424;-44
2023/04/12 05:39:34;;;;;;;3.00;2.10;;;;;;;;;;5012612;28;20936;-44
2023/04/12 05:42:00;;;;;;;2.10;1.90;;;;;;;;;;5012473;28;20787;-44
2023/04/12 05:44:26;;;;;;;2.23;1.90;;;;;;;;;;5012920;28;20423;-45
2023/04/12 05:46:52;;;;;;;6.60;2.80;;;;;;;;;;5011366;28;20425;-45
2023/04/12 05:49:18;;;;;;;3.43;1.70;;;;;;;;;;5012287;28;20416;-44
2023/04/12 05:51:44;;;;;;;2.90;1.70;;;;;;;;;;5009257;28;20474;-44
2023/04/12 05:54:10;;;;;;;2.87;1.73;;;;;;;;;;5012874;28;20459;-44
2023/04/12 05:56:36;;;;;;;4.70;2.27;;;;;;;;;;5011010;28;20424;-44
2023/04/12 05:59:03;;;;;;;3.10;1.80;;;;;;;;;;5008042;28;20432;-45
2023/04/12 06:01:33;;;;;;;1.87;1.77;;;;;;;;;;5012757;28;20408;-45
2023/04/12 06:04:01;;;;;;;2.07;1.87;;;;;;;;;;5002036;28;20487;-44
2023/04/12 06:06:29;;;;;;;2.67;1.97;;;;;;;;;;5008228;28;20829;-45
2023/04/12 06:08:56;;;;;;;1.80;1.70;;;;;;;;;;5012189;28;20515;-44
2023/04/12 06:11:23;;;;;;;4.27;2.00;;;;;;;;;;5009711;28;20443;-45
2023/04/12 06:13:49;;;;;;;1.87;1.77;;;;;;;;;;5012558;28;20463;-45
2023/04/12 06:16:15;;;;;;;2.70;2.00;;;;;;;;;;5014077;28;20478;-45
2023/04/12 06:18:41;;;;;;;2.27;2.17;;;;;;;;;;5005937;28;20429;-45
2023/04/12 06:21:07;;;;;;;1.80;1.70;;;;;;;;;;5011452;28;20777;-46
2023/04/12 06:23:33;;;;;;;6.10;3.47;;;;;;;;;;5012336;28;20490;-45
2023/04/12 06:25:59;;;;;;;3.07;2.17;;;;;;;;;;5012344;28;20506;-46
2023/04/12 06:28:25;;;;;;;3.53;1.87;;;;;;;;;;5012179;28;20447;-45
2023/04/12 06:30:52;;;;;;;2.40;1.60;;;;;;;;;;5012151;28;20446;-45
2023/04/12 06:33:21;;;;;;;2.80;2.37;;;;;;;;;;5012282;28;20471;-45
2023/04/12 06:35:47;;;;;;;1.80;1.70;;;;;;;;;;5011206;28;20415;-45
2023/04/12 06:38:13;;;;;;;1.97;1.77;;;;;;;;;;5011642;28;20441;-46
2023/04/12 06:40:39;;;;;;;1.80;1.70;;;;;;;;;;5012009;28;20932;-45
2023/04/12 06:43:05;;;;;;;3.83;1.70;;;;;;;;;;5012206;28;20493;-45
2023/04/12 06:45:31;;;;;;;1.50;1.40;;;;;;;;;;5015037;28;20483;-46
2023/04/12 06:47:57;;;;;;;1.70;1.53;;;;;;;;;;5015353;28;20451;-45
2023/04/12 06:50:24;;;;;;;1.80;1.70;;;;;;;;;;5012086;28;20415;-45
2023/04/12 06:52:50;;;;;;;1.40;1.30;;;;;;;;;;5011578;28;20470;-46
2023/04/12 06:55:17;;;;;;;1.87;1.70;;;;;;;;;;5011337;28;20410;-45
2023/04/12 06:57:43;;;;;;;1.50;1.40;;;;;;;;;;5012414;28;20473;-45
2023/04/12 07:00:10;;;;;;;1.60;1.50;;;;;;;;;;5011849;28;20416;-45
2023/04/12 07:02:37;;;;;;;1.97;1.87;;;;;;;;;;5010911;28;20413;-45
2023/04/12 07:05:03;;;;;;;1.40;1.30;;;;;;;;;;5011960;28;20408;-45
2023/04/12 07:07:29;;;;;;;1.60;1.50;;;;;;;;;;5011272;28;20975;-45
2023/04/12 07:09:55;;;;;;;1.73;1.63;;;;;;;;;;5011816;28;20411;-45
2023/04/12 07:12:21;;;;;;;2.33;1.47;;;;;;;;;;5011660;28;20463;-45
2023/04/12 07:14:47;;;;;;;1.57;1.47;;;;;;;;;;5011782;28;20423;-46
2023/04/12 07:17:14;;;;;;;1.50;1.40;;;;;;;;;;5015937;28;20450;-46
2023/04/12 07:19:40;;;;;;;1.50;1.40;;;;;;;;;;5011905;28;20436;-46
2023/04/12 07:22:07;;;;;;;1.50;1.40;;;;;;;;;;5011891;28;20404;-46
2023/04/12 07:24:33;;;;;;;1.70;1.60;;;;;;;;;;5011686;28;20471;-46
2023/04/12 07:26:59;;;;;;;1.70;1.50;;;;;;;;;;5011259;28;20447;-46
2023/04/12 07:29:25;;;;;;;1.33;1.23;;;;;;;;;;5011714;28;20416;-46
2023/04/12 07:31:51;;;;;;;1.53;1.43;;;;;;;;;;5014648;28;20424;-45
2023/04/12 07:34:17;;;;;;;1.67;1.47;;;;;;;;;;5015626;28;20559;-46
2023/04/12 07:36:43;;;;;;;4.50;1.30;;;;;;;;;;5011227;28;20780;-45
2023/04/12 07:39:13;;;;;;;1.57;1.47;;;;;;;;;;5018291;28;20552;-45
2023/04/12 07:41:41;;;;;;;1.50;1.40;;;;;;;;;;5015246;28;20417;-45
2023/04/12 07:44:07;;;;;;;1.50;1.23;;;;;;;;;;5008723;28;20404;-46
2023/04/12 07:46:33;;;;;;;1.50;1.40;;;;;;;;;;5016009;28;20456;-46
2023/04/12 07:48:59;;;;;;;1.77;1.30;;;;;;;;;;5012338;28;20489;-46
2023/04/12 07:51:25;;;;;;;1.73;1.63;;;;;;;;;;5015092;28;20497;-46
2023/04/12 07:53:51;;;;;;;1.33;1.23;;;;;;;;;;5015237;28;20477;-45
2023/04/12 07:56:17;;;;;;;1.33;1.20;;;;;;;;;;5015177;28;20504;-46
2023/04/12 07:58:43;;;;;;;1.53;1.20;;;;;;;;;;5014200;28;20512;-46
2023/04/12 08:01:12;;;;;;;1.60;1.50;;;;;;;;;;5015070;28;20494;-46
2023/04/12 08:03:38;;;;;;;1.50;1.40;;;;;;;;;;5015300;28;20456;-46
2023/04/12 08:06:04;;;;;;;1.40;1.30;;;;;;;;;;5014957;28;20421;-45
2023/04/12 08:08:30;;;;;;;4.00;2.13;;;;;;;;;;5014652;28;20461;-46
2023/04/12 08:10:56;;;;;;;1.20;1.10;;;;;;;;;;5007942;28;20414;-46
2023/04/12 08:13:22;;;;;;;1.40;1.30;;;;;;;;;;5014296;28;20473;-47
2023/04/12 08:15:48;;;;;;;1.50;1.10;;;;;;;;;;5014682;28;20415;-45
2023/04/12 08:18:14;;;;;;;1.87;1.20;;;;;;;;;;5020330;28;20457;-46
2023/04/12 08:20:42;;;;;;;2.13;1.47;;;;;;;;;;5014620;28;20462;-45
2023/04/12 08:23:08;;;;;;;3.40;1.20;;;;;;;;;;5014620;28;20479;-45
2023/04/12 08:25:35;;;;;;;1.93;1.20;;;;;;;;;;5014573;28;20794;-46
2023/04/12 08:28:02;;;;;;;4.10;1.60;;;;;;;;;;5013960;28;20836;-46
2023/04/12 08:30:28;;;;;;;1.40;1.30;;;;;;;;;;5014656;28;20910;-46
2023/04/12 08:32:54;;;;;;;1.40;1.30;;;;;;;;;;5013251;28;20476;-46
2023/04/12 08:35:21;;;;;;;1.63;1.23;;;;;;;;;;5014959;28;20410;-46
2023/04/12 08:37:47;;;;;;;1.43;1.33;;;;;;;;;;5013993;28;20457;-46
2023/04/12 08:40:13;;;;;;;1.50;1.40;;;;;;;;;;5014149;28;20501;-46
2023/04/12 08:42:40;;;;;;;1.30;1.20;;;;;;;;;;5014047;28;20421;-46
2023/04/12 08:45:07;;;;;;;1.13;1.03;;;;;;;;;;5014360;28;20755;-46
2023/04/12 08:47:37;;;;;;;2.50;1.40;;;;;;;;;;5014173;28;20442;-47
2023/04/12 08:50:07;;;;;;;1.40;1.30;;;;;;;;;;5013822;28;20438;-47
2023/04/12 08:52:34;;;;;;;1.73;1.20;;;;;;;;;;5014140;28;20466;-47
2023/04/12 08:55:02;;;;;;;2.83;1.50;;;;;;;;;;5014254;28;20426;-47
2023/04/12 08:57:28;;;;;;;1.20;1.10;;;;;;;;;;5012221;28;20780;-47
2023/04/12 08:59:55;;;;;;;1.40;1.23;;;;;;;;;;5005833;28;20503;-47
2023/04/12 09:02:21;;;;;;;1.30;1.20;;;;;;;;;;5009478;28;20942;-47
2023/04/12 09:04:51;;;;;;;1.40;1.30;;;;;;;;;;5012562;28;20422;-47
2023/04/12 09:07:18;;;;;;;1.47;1.37;;;;;;;;;;5012913;28;20841;-47
2023/04/12 09:09:44;;;;;;;1.50;1.40;;;;;;;;;;5011684;28;20422;-47
2023/04/12 09:12:11;;;;;;;1.30;1.20;;;;;;;;;;5014035;28;20422;-46
2023/04/12 09:14:37;;;;;;;1.33;1.23;;;;;;;;;;5008466;28;20511;-47
2023/04/12 09:17:04;;;;;;;1.30;1.20;;;;;;;;;;5013546;28;20437;-47
2023/04/12 09:19:31;;;;;;;1.30;1.20;;;;;;;;;;5012033;28;20407;-47
2023/04/12 09:21:57;;;;;;;1.40;1.30;;;;;;;;;;5007677;28;20419;-47
2023/04/12 09:24:23;;;;;;;1.40;1.30;;;;;;;;;;5013700;28;20403;-47
2023/04/12 09:27:00;;;;;;;2.33;1.50;;;;;;;;;;5013680;28;20940;-46
2023/04/12 09:29:26;;;;;;;1.47;1.27;;;;;;;;;;5010162;28;20490;-45
2023/04/12 09:32:10;;;;;;;1.33;1.20;;;;;;;;;;5007100;28;20529;-46
2023/04/12 09:34:37;;;;;;;2.40;1.50;;;;;;;;;;5013303;28;20415;-46
2023/04/12 09:37:14;;;;;;;1.03;1.03;;;;;;;;;;5010106;28;20906;-45
2023/04/12 09:39:41;;;;;;;1.30;1.20;;;;;;;;;;5013298;28;20406;-45
2023/04/12 09:42:07;;;;;;;1.50;1.30;;;;;;;;;;5010046;28;20941;-46
2023/04/12 09:44:33;;;;;;;1.40;1.30;;;;;;;;;;5017583;28;20423;-46
2023/04/12 09:47:04;;;;;;;2.00;1.50;;;;;;;;;;5013136;28;20396;-47
2023/04/12 09:49:37;;;;;;;1.80;1.37;;;;;;;;;;5013516;28;20395;-45
2023/04/12 09:52:03;;;;;;;2.30;1.40;;;;;;;;;;5005861;28;20435;-46
2023/04/12 09:54:30;;;;;;;1.57;1.47;;;;;;;;;;5009625;28;20419;-46
2023/04/12 09:56:56;;;;;;;1.37;1.27;;;;;;;;;;5013228;28;20429;-46
2023/04/12 09:59:27;;;;;;;1.77;1.60;;;;;;;;;;5006850;28;20435;-46
2023/04/12 10:01:53;;;;;;;1.47;1.37;;;;;;;;;;5013076;28;20411;-46
2023/04/12 10:04:20;;;;;;;1.40;1.30;;;;;;;;;;5010988;28;20465;-45
2023/04/12 10:06:46;;;;;;;2.93;1.73;;;;;;;;;;5010445;28;20932;-45
2023/04/12 10:09:13;;;;;;;1.50;1.40;;;;;;;;;;5013088;28;20437;-46
2023/04/12 10:11:40;;;;;;;1.40;1.30;;;;;;;;;;5012743;28;20418;-45
2023/04/12 10:14:06;;;;;;;1.20;1.10;;;;;;;;;;5007038;28;20464;-45
2023/04/12 10:16:35;;;;;;;1.50;1.40;;;;;;;;;;5012732;28;20565;-46
2023/04/12 10:19:02;;;;;;;1.30;1.20;;;;;;;;;;5012086;28;20436;-46
2023/04/12 10:21:28;;;;;;;1.40;1.30;;;;;;;;;;5010349;28;20506;-46
2023/04/12 10:23:54;;;;;;;1.30;1.20;;;;;;;;;;5011805;28;20514;-46
2023/04/12 10:26:20;;;;;;;2.27;1.40;;;;;;;;;;5007409;28;20826;-46
2023/04/12 10:29:06;;;;;;;1.40;1.30;;;;;;;;;;5009560;28;20821;-46
2023/04/12 10:31:32;;;;;;;1.20;1.10;;;;;;;;;;5012057;28;20568;-45
2023/04/12 10:34:01;;;;;;;1.53;1.33;;;;;;;;;;5012490;28;20462;-45
2023/04/12 10:36:50;;;;;;;1.20;1.10;;;;;;;;;;5012700;28;20434;-46
2023/04/12 10:39:16;;;;;;;1.40;1.30;;;;;;;;;;5012246;28;20428;-45
2023/04/12 10:42:01;;;;;;;1.30;1.20;;;;;;;;;;5012757;28;20951;-45
2023/04/12 10:44:27;;;;;;;2.33;1.40;;;;;;;;;;5013636;28;20762;-45
2023/04/12 10:46:53;;;;;;;4.33;1.93;;;;;;;;;;5013205;28;20541;-45
2023/04/12 10:49:19;;;;;;;1.30;1.20;;;;;;;;;;5011937;28;20496;-46
2023/04/12 10:52:09;;;;;;;1.23;1.13;;;;;;;;;;5012125;28;20459;-46
2023/04/12 10:54:35;;;;;;;0.90;0.90;;;;;;;;;;5006752;28;20474;-45
2023/04/12 10:57:04;;;;;;;1.67;1.30;;;;;;;;;;5010563;28;20412;-45
2023/04/12 10:59:54;;;;;;;1.60;1.50;;;;;;;;;;5014211;28;20432;-45
2023/04/12 11:02:20;;;;;;;1.57;1.47;;;;;;;;;;5005688;28;20872;-45
2023/04/12 11:05:03;;;;;;;1.30;1.20;;;;;;;;;;5010257;28;20435;-45
2023/04/12 11:07:40;;;;;;;1.73;1.63;;;;;;;;;;5008492;28;20519;-44
2023/04/12 11:10:13;;;;;;;3.40;1.20;;;;;;;;;;5012662;28;20416;-45
2023/04/12 11:12:40;;;;;;;1.33;1.20;;;;;;;;;;5012276;28;20467;-45
2023/04/12 11:15:06;;;;;;;3.60;1.20;;;;;;;;;;5011186;28;20425;-45
2023/04/12 11:17:32;;;;;;;1.40;1.30;;;;;;;;;;5011883;28;20458;-45
2023/04/12 11:19:59;;;;;;;1.60;1.50;;;;;;;;;;5007540;28;20413;-45
2023/04/12 11:22:27;;;;;;;1.70;1.60;;;;;;;;;;5012394;28;20452;-45
2023/04/12 11:24:58;;;;;;;2.60;1.67;;;;;;;;;;5012876;28;20421;-46
2023/04/12 11:27:25;;;;;;;1.37;1.27;;;;;;;;;;5012145;28;20429;-45
2023/04/12 11:29:53;;;;;;;1.87;1.50;;;;;;;;;;5012057;28;20873;-45
2023/04/12 11:32:20;;;;;;;1.70;1.60;;;;;;;;;;5012876;28;20418;-45
2023/04/12 11:34:46;;;;;;;2.80;2.50;;;;;;;;;;5011696;28;20427;-45
2023/04/12 11:37:13;;;;;;;3.27;2.30;;;;;;;;;;5005620;28;20977;-45
2023/04/12 11:39:42;;;;;;;2.20;2.10;;;;;;;;;;5012515;28;20404;-46
2023/04/12 11:42:19;;;;;;;2.13;2.03;;;;;;;;;;5011462;28;20404;-45
2023/04/12 11:44:45;;;;;;;2.17;1.80;;;;;;;;;;5015299;28;20482;-45
2023/04/12 11:47:21;;;;;;;2.33;1.40;;;;;;;;;;5011967;28;20969;-45
2023/04/12 11:49:57;;;;;;;2.63;2.43;;;;;;;;;;5009666;28;20458;-45
2023/04/12 11:52:30;;;;;;;4.47;1.80;;;;;;;;;;5009781;28;20551;-45
2023/04/12 11:54:57;;;;;;;2.90;1.47;;;;;;;;;;5008963;28;20412;-45
2023/04/12 11:57:24;;;;;;;1.60;1.50;;;;;;;;;;5010825;28;20496;-45
2023/04/12 11:59:51;;;;;;;1.40;1.30;;;;;;;;;;5011755;28;20421;-45
2023/04/12 12:02:17;;;;;;;1.67;1.57;;;;;;;;;;5015781;28;20412;-45
2023/04/12 12:04:48;;;;;;;2.03;1.10;;;;;;;;;;5013085;28;20423;-45
2023/04/12 12:07:15;;;;;;;1.77;1.50;;;;;;;;;;4995685;28;20433;-45
2023/04/12 12:09:41;;;;;;;1.50;1.40;;;;;;;;;;5013969;28;20412;-46
2023/04/12 12:12:11;;;;;;;1.47;1.30;;;;;;;;;;5013708;28;20419;-45
2023/04/12 12:14:38;;;;;;;2.30;2.20;;;;;;;;;;5009951;28;20416;-45
2023/04/12 12:17:14;;;;;;;3.87;2.20;;;;;;;;;;5014305;28;20409;-45
2023/04/12 12:19:44;;;;;;;2.40;2.27;;;;;;;;;;5018038;28;20411;-45
2023/04/12 12:22:17;;;;;;;3.27;2.97;;;;;;;;;;5016194;28;20403;-46
2023/04/12 12:24:47;;;;;;;2.87;2.70;;;;;;;;;;5013975;28;20414;-46
2023/04/12 12:27:17;;;;;;;2.83;2.60;;;;;;;;;;5015969;28;20475;-46
2023/04/12 12:29:43;;;;;;;7.20;3.03;;;;;;;;;;4998716;28;20420;-45
2023/04/12 12:32:11;;;;;;;2.50;1.90;;;;;;;;;;5016886;28;20397;-44
2023/04/12 12:34:37;;;;;;;1.93;1.77;;;;;;;;;;4998213;28;20442;-44
2023/04/12 12:37:07;;;;;;;2.80;2.00;;;;;;;;;;5007799;28;20411;-45
2023/04/12 12:39:33;;;;;;;3.73;2.23;;;;;;;;;;5014286;28;20390;-46
2023/04/12 12:41:59;;;;;;;5.67;2.57;;;;;;;;;;5014252;28;20772;-45
2023/04/12 12:44:25;;;;;;;6.03;2.13;;;;;;;;;;5014115;28;20438;-45
2023/04/12 12:46:51;;;;;;;3.23;2.10;;;;;;;;;;5013825;28;20980;-45
2023/04/12 12:49:18;;;;;;;2.83;1.80;;;;;;;;;;5013589;28;20501;-45
2023/04/12 12:51:44;;;;;;;4.80;2.03;;;;;;;;;;5011746;28;20816;-45
2023/04/12 12:54:10;;;;;;;3.33;1.70;;;;;;;;;;5014099;28;20505;-45
2023/04/12 12:56:36;;;;;;;2.10;2.00;;;;;;;;;;5010553;28;20370;-45
2023/04/12 12:59:02;;;;;;;10.40;2.40;;;;;;;;;;5008178;28;20798;-45
2023/04/12 13:01:28;;;;;;;3.53;2.10;;;;;;;;;;5016812;28;20413;-46
2023/04/12 13:03:53;;;;;;;4.30;2.40;;;;;;;;;;5019112;28;20398;-45
2023/04/12 13:06:20;;;;;;;5.43;2.87;;;;;;;;;;5012968;28;20469;-45
2023/04/12 13:08:46;;;;;;;5.63;2.43;;;;;;;;;;5013611;28;20406;-45
2023/04/12 13:11:11;;;;;;;3.87;2.20;;;;;;;;;;5013917;28;20738;-46
2023/04/12 13:13:37;;;;;;;6.07;2.83;;;;;;;;;;5013735;28;20546;-45
2023/04/12 13:16:04;;;;;;;3.80;2.27;;;;;;;;;;5013847;28;20403;-45
2023/04/12 13:18:30;;;;;;;2.37;1.70;;;;;;;;;;5013375;28;20773;-46
2023/04/12 13:20:56;;;;;;;2.17;1.90;;;;;;;;;;5012537;28;20417;-46
2023/04/12 13:23:21;;;;;;;5.80;2.17;;;;;;;;;;5013374;28;20420;-45
2023/04/12 13:25:47;;;;;;;4.17;2.53;;;;;;;;;;5014223;28;20444;-45
2023/04/12 13:28:15;;;;;;;4.50;3.47;;;;;;;;;;5015178;28;20444;-45
2023/04/12 13:30:42;;;;;;;6.83;2.27;;;;;;;;;;5013486;28;20415;-46
2023/04/12 13:33:08;;;;;;;2.90;2.70;;;;;;;;;;5011996;28;20968;-46
2023/04/12 13:35:34;;;;;;;2.90;1.93;;;;;;;;;;5013114;28;20450;-46
2023/04/12 13:38:00;;;;;;;4.20;2.00;;;;;;;;;;5012850;28;20448;-46
2023/04/12 13:40:26;;;;;;;10.70;3.00;;;;;;;;;;5012845;28;20424;-46
2023/04/12 13:42:52;;;;;;;3.67;2.50;;;;;;;;;;5013178;28;20412;-45
2023/04/12 13:45:18;;;;;;;3.07;2.73;;;;;;;;;;5013002;28;20418;-44
2023/04/12 13:47:44;;;;;;;2.43;2.13;;;;;;;;;;5011595;28;20432;-45
2023/04/12 13:50:10;;;;;;;7.30;2.40;;;;;;;;;;5013315;28;20776;-45
2023/04/12 13:52:36;;;;;;;8.70;3.00;;;;;;;;;;5019069;28;20440;-46
2023/04/12 13:55:06;;;;;;;11.43;3.27;;;;;;;;;;5012914;28;20581;-46
2023/04/12 13:57:32;;;;;;;4.87;2.70;;;;;;;;;;5006775;28;20573;-45
2023/04/12 13:59:58;;;;;;;5.13;3.00;;;;;;;;;;5012989;28;20610;-46
2023/04/12 14:02:24;;;;;;;6.67;2.90;;;;;;;;;;5011897;28;20427;-45
2023/04/12 14:04:51;;;;;;;4.40;2.53;;;;;;;;;;5012834;28;20430;-46
2023/04/12 14:07:18;;;;;;;3.40;1.73;;;;;;;;;;5012530;28;20405;-45
2023/04/12 14:09:44;;;;;;;3.73;2.50;;;;;;;;;;5012601;28;20889;-46
2023/04/12 14:12:10;;;;;;;5.90;2.57;;;;;;;;;;5012419;28;20390;-45
2023/04/12 14:14:36;;;;;;;5.50;2.37;;;;;;;;;;5012423;28;20425;-46
2023/04/12 14:17:02;;;;;;;4.87;1.87;;;;;;;;;;5012098;28;20433;-46
2023/04/12 14:19:28;;;;;;;4.00;2.27;;;;;;;;;;5016436;28;20535;-45
2023/04/12 14:21:54;;;;;;;2.00;1.80;;;;;;;;;;5007180;28;20414;-45
2023/04/12 14:24:20;;;;;;;5.47;2.20;;;;;;;;;;5012498;28;20416;-46
2023/04/12 14:26:48;;;;;;;5.33;2.40;;;;;;;;;;5012305;28;20480;-44
2023/04/12 14:29:16;;;;;;;3.50;2.03;;;;;;;;;;5013354;28;21023;-45
2023/04/12 14:31:42;;;;;;;4.37;1.90;;;;;;;;;;5011879;28;20419;-44
2023/04/12 14:34:09;;;;;;;5.07;2.33;;;;;;;;;;5013607;28;20785;-45
2023/04/12 14:36:35;;;;;;;2.67;2.30;;;;;;;;;;5013692;28;20481;-45
2023/04/12 14:39:02;;;;;;;11.47;3.40;;;;;;;;;;5012381;28;20500;-45
2023/04/12 14:41:29;;;;;;;3.63;3.13;;;;;;;;;;5013096;28;20811;-44
2023/04/12 14:43:55;;;;;;;10.33;3.80;;;;;;;;;;5013907;28;20421;-44